sensor_id;sensor_type;location;lat;lon;timestamp;P1;durP1;ratioP1;P2;durP2;ratioP2
7833;SDS011;3962;42.696;23.354;2022-09-17T00:00:33;9.10;;;5.03;;
7833;SDS011;3962;42.696;23.354;2022-09-17T00:03:01;11.43;;;4.77;;
7833;SDS011;3962;42.696;23.354;2022-09-17T00:05:29;11.80;;;4.83;;
7833;SDS011;3962;42.696;23.354;2022-09-17T00:08:08;10.37;;;5.23;;
7833;SDS011;3962;42.696;23.354;2022-09-17T00:10:41;9.00;;;5.00;;
7833;SDS011;3962;42.696;23.354;2022-09-17T00:13:15;8.83;;;4.80;;
7833;SDS011;3962;42.696;23.354;2022-09-17T00:15:46;6.77;;;4.70;;
7833;SDS011;3962;42.696;23.354;2022-09-17T00:18:19;7.67;;;4.53;;
7833;SDS011;3962;42.696;23.354;2022-09-17T00:25:52;11.47;;;5.00;;
7833;SDS011;3962;42.696;23.354;2022-09-17T00:28:19;7.13;;;4.87;;
7833;SDS011;3962;42.696;23.354;2022-09-17T00:30:46;9.27;;;5.33;;
7833;SDS011;3962;42.696;23.354;2022-09-17T00:33:23;9.80;;;4.90;;
7833;SDS011;3962;42.696;23.354;2022-09-17T00:35:57;9.40;;;5.43;;
7833;SDS011;3962;42.696;23.354;2022-09-17T00:38:32;6.30;;;4.63;;
7833;SDS011;3962;42.696;23.354;2022-09-17T00:41:08;11.90;;;5.53;;
7833;SDS011;3962;42.696;23.354;2022-09-17T00:43:39;10.40;;;5.40;;
7833;SDS011;3962;42.696;23.354;2022-09-17T00:46:26;6.47;;;4.73;;
7833;SDS011;3962;42.696;23.354;2022-09-17T00:49:02;9.47;;;4.80;;
7833;SDS011;3962;42.696;23.354;2022-09-17T00:51:38;7.23;;;4.73;;
7833;SDS011;3962;42.696;23.354;2022-09-17T00:54:10;8.80;;;4.97;;
7833;SDS011;3962;42.696;23.354;2022-09-17T00:56:38;11.97;;;4.73;;
7833;SDS011;3962;42.696;23.354;2022-09-17T00:59:13;8.87;;;4.63;;
7833;SDS011;3962;42.696;23.354;2022-09-17T01:01:53;9.73;;;4.87;;
7833;SDS011;3962;42.696;23.354;2022-09-17T01:04:23;6.43;;;4.43;;
7833;SDS011;3962;42.696;23.354;2022-09-17T01:06:54;7.93;;;4.90;;
7833;SDS011;3962;42.696;23.354;2022-09-17T01:09:33;8.77;;;4.70;;
7833;SDS011;3962;42.696;23.354;2022-09-17T01:12:17;6.50;;;4.17;;
7833;SDS011;3962;42.696;23.354;2022-09-17T01:15:13;9.60;;;5.00;;
7833;SDS011;3962;42.696;23.354;2022-09-17T01:17:58;8.57;;;4.63;;
7833;SDS011;3962;42.696;23.354;2022-09-17T01:23:48;9.90;;;4.83;;
7833;SDS011;3962;42.696;23.354;2022-09-17T01:29:36;10.67;;;4.70;;
7833;SDS011;3962;42.696;23.354;2022-09-17T01:32:25;11.30;;;4.67;;
7833;SDS011;3962;42.696;23.354;2022-09-17T01:35:00;9.47;;;3.50;;
7833;SDS011;3962;42.696;23.354;2022-09-17T01:37:35;7.33;;;3.77;;
7833;SDS011;3962;42.696;23.354;2022-09-17T01:42:52;7.27;;;4.73;;
7833;SDS011;3962;42.696;23.354;2022-09-17T01:45:25;9.73;;;4.33;;
7833;SDS011;3962;42.696;23.354;2022-09-17T01:48:06;9.80;;;4.87;;
7833;SDS011;3962;42.696;23.354;2022-09-17T01:53:16;7.90;;;4.30;;
7833;SDS011;3962;42.696;23.354;2022-09-17T01:58:21;10.10;;;3.97;;
7833;SDS011;3962;42.696;23.354;2022-09-17T02:00:54;9.50;;;4.67;;
7833;SDS011;3962;42.696;23.354;2022-09-17T02:03:26;8.63;;;4.33;;
7833;SDS011;3962;42.696;23.354;2022-09-17T02:08:50;7.43;;;4.17;;
7833;SDS011;3962;42.696;23.354;2022-09-17T02:16:59;7.13;;;4.20;;
7833;SDS011;3962;42.696;23.354;2022-09-17T02:19:39;6.37;;;4.10;;
7833;SDS011;3962;42.696;23.354;2022-09-17T02:24:44;9.63;;;4.77;;
7833;SDS011;3962;42.696;23.354;2022-09-17T02:27:18;10.90;;;4.47;;
7833;SDS011;3962;42.696;23.354;2022-09-17T02:29:48;7.63;;;4.07;;
7833;SDS011;3962;42.696;23.354;2022-09-17T02:32:22;7.93;;;4.40;;
7833;SDS011;3962;42.696;23.354;2022-09-17T02:40:15;7.57;;;4.33;;
7833;SDS011;3962;42.696;23.354;2022-09-17T02:42:53;11.47;;;4.10;;
7833;SDS011;3962;42.696;23.354;2022-09-17T02:45:40;8.80;;;4.43;;
7833;SDS011;3962;42.696;23.354;2022-09-17T02:48:23;8.23;;;5.07;;
7833;SDS011;3962;42.696;23.354;2022-09-17T02:51:25;9.03;;;4.77;;
7833;SDS011;3962;42.696;23.354;2022-09-17T02:57:11;10.10;;;6.10;;
7833;SDS011;3962;42.696;23.354;2022-09-17T02:59:46;11.70;;;5.40;;
7833;SDS011;3962;42.696;23.354;2022-09-17T03:02:21;7.10;;;4.43;;
7833;SDS011;3962;42.696;23.354;2022-09-17T03:04:53;6.93;;;4.60;;
7833;SDS011;3962;42.696;23.354;2022-09-17T03:07:23;9.20;;;5.33;;
7833;SDS011;3962;42.696;23.354;2022-09-17T03:09:57;10.03;;;5.13;;
7833;SDS011;3962;42.696;23.354;2022-09-17T03:12:26;7.97;;;4.77;;
7833;SDS011;3962;42.696;23.354;2022-09-17T03:15:01;10.83;;;4.70;;
7833;SDS011;3962;42.696;23.354;2022-09-17T03:17:39;4.60;;;3.67;;
7833;SDS011;3962;42.696;23.354;2022-09-17T03:20:06;7.67;;;4.00;;
7833;SDS011;3962;42.696;23.354;2022-09-17T03:22:36;9.10;;;4.20;;
7833;SDS011;3962;42.696;23.354;2022-09-17T03:30:27;11.10;;;4.80;;
7833;SDS011;3962;42.696;23.354;2022-09-17T03:33:04;7.80;;;5.27;;
7833;SDS011;3962;42.696;23.354;2022-09-17T03:35:42;12.30;;;5.23;;
7833;SDS011;3962;42.696;23.354;2022-09-17T03:38:16;6.63;;;4.57;;
7833;SDS011;3962;42.696;23.354;2022-09-17T03:40:44;6.93;;;4.50;;
7833;SDS011;3962;42.696;23.354;2022-09-17T03:43:23;10.23;;;4.90;;
7833;SDS011;3962;42.696;23.354;2022-09-17T03:45:50;11.03;;;4.50;;
7833;SDS011;3962;42.696;23.354;2022-09-17T03:48:30;9.63;;;5.07;;
7833;SDS011;3962;42.696;23.354;2022-09-17T03:51:16;7.03;;;4.60;;
7833;SDS011;3962;42.696;23.354;2022-09-17T03:53:51;7.40;;;4.73;;
7833;SDS011;3962;42.696;23.354;2022-09-17T03:56:18;10.27;;;5.67;;
7833;SDS011;3962;42.696;23.354;2022-09-17T03:58:55;10.27;;;4.90;;
7833;SDS011;3962;42.696;23.354;2022-09-17T04:04:01;6.77;;;4.13;;
7833;SDS011;3962;42.696;23.354;2022-09-17T04:06:28;8.77;;;4.80;;
7833;SDS011;3962;42.696;23.354;2022-09-17T04:08:57;7.43;;;4.90;;
7833;SDS011;3962;42.696;23.354;2022-09-17T04:11:25;13.33;;;4.87;;
7833;SDS011;3962;42.696;23.354;2022-09-17T04:13:51;7.97;;;4.77;;
7833;SDS011;3962;42.696;23.354;2022-09-17T04:16:18;13.40;;;5.50;;
7833;SDS011;3962;42.696;23.354;2022-09-17T04:18:45;9.53;;;5.07;;
7833;SDS011;3962;42.696;23.354;2022-09-17T04:21:12;7.70;;;4.40;;
7833;SDS011;3962;42.696;23.354;2022-09-17T04:23:39;9.63;;;4.80;;
7833;SDS011;3962;42.696;23.354;2022-09-17T04:26:07;8.80;;;4.63;;
7833;SDS011;3962;42.696;23.354;2022-09-17T04:28:34;8.33;;;4.43;;
7833;SDS011;3962;42.696;23.354;2022-09-17T04:31:01;9.83;;;4.70;;
7833;SDS011;3962;42.696;23.354;2022-09-17T04:33:28;6.20;;;4.50;;
7833;SDS011;3962;42.696;23.354;2022-09-17T04:35:55;8.07;;;4.80;;
7833;SDS011;3962;42.696;23.354;2022-09-17T04:38:22;7.67;;;5.07;;
7833;SDS011;3962;42.696;23.354;2022-09-17T04:40:48;11.20;;;6.10;;
7833;SDS011;3962;42.696;23.354;2022-09-17T04:43:17;14.43;;;7.07;;
7833;SDS011;3962;42.696;23.354;2022-09-17T04:45:44;14.53;;;6.60;;
7833;SDS011;3962;42.696;23.354;2022-09-17T04:48:12;10.17;;;6.43;;
7833;SDS011;3962;42.696;23.354;2022-09-17T04:50:38;9.43;;;6.53;;
7833;SDS011;3962;42.696;23.354;2022-09-17T04:53:05;9.87;;;6.20;;
7833;SDS011;3962;42.696;23.354;2022-09-17T04:55:32;7.97;;;5.87;;
7833;SDS011;3962;42.696;23.354;2022-09-17T04:57:59;11.70;;;6.70;;
7833;SDS011;3962;42.696;23.354;2022-09-17T05:00:27;11.57;;;6.83;;
7833;SDS011;3962;42.696;23.354;2022-09-17T05:02:54;12.67;;;5.73;;
7833;SDS011;3962;42.696;23.354;2022-09-17T05:05:21;9.83;;;5.30;;
7833;SDS011;3962;42.696;23.354;2022-09-17T05:07:49;11.90;;;4.97;;
7833;SDS011;3962;42.696;23.354;2022-09-17T05:10:17;12.20;;;5.83;;
7833;SDS011;3962;42.696;23.354;2022-09-17T05:12:48;18.07;;;6.13;;
7833;SDS011;3962;42.696;23.354;2022-09-17T05:15:15;9.77;;;4.43;;
7833;SDS011;3962;42.696;23.354;2022-09-17T05:17:43;9.60;;;5.87;;
7833;SDS011;3962;42.696;23.354;2022-09-17T05:20:10;10.87;;;5.00;;
7833;SDS011;3962;42.696;23.354;2022-09-17T05:22:41;9.60;;;4.23;;
7833;SDS011;3962;42.696;23.354;2022-09-17T05:25:08;8.60;;;4.70;;
7833;SDS011;3962;42.696;23.354;2022-09-17T05:27:35;10.60;;;6.70;;
7833;SDS011;3962;42.696;23.354;2022-09-17T05:30:04;12.63;;;5.40;;
7833;SDS011;3962;42.696;23.354;2022-09-17T05:32:32;9.53;;;5.17;;
7833;SDS011;3962;42.696;23.354;2022-09-17T05:35:00;10.33;;;4.90;;
7833;SDS011;3962;42.696;23.354;2022-09-17T05:37:27;5.93;;;3.00;;
7833;SDS011;3962;42.696;23.354;2022-09-17T05:39:54;5.63;;;3.20;;
7833;SDS011;3962;42.696;23.354;2022-09-17T05:42:21;7.73;;;4.23;;
7833;SDS011;3962;42.696;23.354;2022-09-17T05:44:48;11.33;;;4.63;;
7833;SDS011;3962;42.696;23.354;2022-09-17T05:47:15;9.13;;;4.60;;
7833;SDS011;3962;42.696;23.354;2022-09-17T05:49:42;9.77;;;4.60;;
7833;SDS011;3962;42.696;23.354;2022-09-17T05:52:10;11.83;;;4.40;;
7833;SDS011;3962;42.696;23.354;2022-09-17T05:54:37;14.27;;;5.50;;
7833;SDS011;3962;42.696;23.354;2022-09-17T05:57:04;8.77;;;4.67;;
7833;SDS011;3962;42.696;23.354;2022-09-17T05:59:31;8.23;;;3.60;;
7833;SDS011;3962;42.696;23.354;2022-09-17T06:01:59;10.83;;;4.37;;
7833;SDS011;3962;42.696;23.354;2022-09-17T06:04:26;10.47;;;4.03;;
7833;SDS011;3962;42.696;23.354;2022-09-17T06:06:52;10.77;;;4.40;;
7833;SDS011;3962;42.696;23.354;2022-09-17T06:09:21;6.03;;;4.57;;
7833;SDS011;3962;42.696;23.354;2022-09-17T06:11:47;12.57;;;4.83;;
7833;SDS011;3962;42.696;23.354;2022-09-17T06:14:14;11.30;;;4.73;;
7833;SDS011;3962;42.696;23.354;2022-09-17T06:16:41;13.67;;;4.83;;
7833;SDS011;3962;42.696;23.354;2022-09-17T06:19:08;12.33;;;4.47;;
7833;SDS011;3962;42.696;23.354;2022-09-17T06:21:35;9.83;;;5.10;;
7833;SDS011;3962;42.696;23.354;2022-09-17T06:24:02;6.83;;;4.00;;
7833;SDS011;3962;42.696;23.354;2022-09-17T06:26:30;14.83;;;4.50;;
7833;SDS011;3962;42.696;23.354;2022-09-17T06:28:57;9.67;;;4.37;;
7833;SDS011;3962;42.696;23.354;2022-09-17T06:31:25;9.50;;;3.93;;
7833;SDS011;3962;42.696;23.354;2022-09-17T06:33:52;15.17;;;4.30;;
7833;SDS011;3962;42.696;23.354;2022-09-17T06:36:18;11.47;;;4.87;;
7833;SDS011;3962;42.696;23.354;2022-09-17T06:38:45;12.07;;;5.40;;
7833;SDS011;3962;42.696;23.354;2022-09-17T06:41:12;11.37;;;5.70;;
7833;SDS011;3962;42.696;23.354;2022-09-17T06:43:42;13.87;;;6.13;;
7833;SDS011;3962;42.696;23.354;2022-09-17T06:46:09;11.43;;;5.10;;
7833;SDS011;3962;42.696;23.354;2022-09-17T06:48:37;12.57;;;4.70;;
7833;SDS011;3962;42.696;23.354;2022-09-17T06:51:04;13.33;;;5.40;;
7833;SDS011;3962;42.696;23.354;2022-09-17T06:53:32;7.03;;;4.10;;
7833;SDS011;3962;42.696;23.354;2022-09-17T06:56:01;7.77;;;3.80;;
7833;SDS011;3962;42.696;23.354;2022-09-17T06:58:28;13.80;;;4.47;;
7833;SDS011;3962;42.696;23.354;2022-09-17T07:00:58;13.10;;;4.83;;
7833;SDS011;3962;42.696;23.354;2022-09-17T07:03:26;10.10;;;4.13;;
7833;SDS011;3962;42.696;23.354;2022-09-17T07:05:53;8.70;;;3.83;;
7833;SDS011;3962;42.696;23.354;2022-09-17T07:08:20;9.57;;;3.80;;
7833;SDS011;3962;42.696;23.354;2022-09-17T07:10:47;8.87;;;4.37;;
7833;SDS011;3962;42.696;23.354;2022-09-17T07:13:14;6.93;;;4.50;;
7833;SDS011;3962;42.696;23.354;2022-09-17T07:15:41;8.93;;;4.20;;
7833;SDS011;3962;42.696;23.354;2022-09-17T07:18:10;5.50;;;4.27;;
7833;SDS011;3962;42.696;23.354;2022-09-17T07:20:37;13.63;;;7.37;;
7833;SDS011;3962;42.696;23.354;2022-09-17T07:23:04;11.33;;;4.43;;
7833;SDS011;3962;42.696;23.354;2022-09-17T07:25:31;17.73;;;6.03;;
7833;SDS011;3962;42.696;23.354;2022-09-17T07:27:57;8.57;;;4.77;;
7833;SDS011;3962;42.696;23.354;2022-09-17T07:30:24;8.40;;;4.40;;
7833;SDS011;3962;42.696;23.354;2022-09-17T07:32:51;6.37;;;3.07;;
7833;SDS011;3962;42.696;23.354;2022-09-17T07:35:20;9.87;;;3.50;;
7833;SDS011;3962;42.696;23.354;2022-09-17T07:37:46;6.07;;;2.70;;
7833;SDS011;3962;42.696;23.354;2022-09-17T07:40:13;6.30;;;3.40;;
7833;SDS011;3962;42.696;23.354;2022-09-17T07:42:40;5.60;;;2.43;;
7833;SDS011;3962;42.696;23.354;2022-09-17T07:45:07;8.27;;;2.57;;
7833;SDS011;3962;42.696;23.354;2022-09-17T07:47:37;7.20;;;2.20;;
7833;SDS011;3962;42.696;23.354;2022-09-17T07:50:05;4.97;;;2.47;;
7833;SDS011;3962;42.696;23.354;2022-09-17T07:52:35;6.33;;;2.43;;
7833;SDS011;3962;42.696;23.354;2022-09-17T07:55:02;7.37;;;2.43;;
7833;SDS011;3962;42.696;23.354;2022-09-17T07:57:28;3.03;;;1.93;;
7833;SDS011;3962;42.696;23.354;2022-09-17T07:59:55;2.93;;;1.60;;
7833;SDS011;3962;42.696;23.354;2022-09-17T08:02:22;6.40;;;2.07;;
7833;SDS011;3962;42.696;23.354;2022-09-17T08:04:49;7.00;;;2.60;;
7833;SDS011;3962;42.696;23.354;2022-09-17T08:07:16;9.17;;;2.77;;
7833;SDS011;3962;42.696;23.354;2022-09-17T08:09:44;3.47;;;1.70;;
7833;SDS011;3962;42.696;23.354;2022-09-17T08:12:11;2.63;;;2.10;;
7833;SDS011;3962;42.696;23.354;2022-09-17T08:14:38;4.60;;;2.37;;
7833;SDS011;3962;42.696;23.354;2022-09-17T08:17:05;7.50;;;2.57;;
7833;SDS011;3962;42.696;23.354;2022-09-17T08:19:33;3.27;;;1.50;;
7833;SDS011;3962;42.696;23.354;2022-09-17T08:22:00;4.37;;;2.13;;
7833;SDS011;3962;42.696;23.354;2022-09-17T08:24:27;3.33;;;1.33;;
7833;SDS011;3962;42.696;23.354;2022-09-17T08:26:55;7.20;;;2.23;;
7833;SDS011;3962;42.696;23.354;2022-09-17T08:29:22;4.53;;;2.10;;
7833;SDS011;3962;42.696;23.354;2022-09-17T08:31:49;5.67;;;1.90;;
7833;SDS011;3962;42.696;23.354;2022-09-17T08:34:16;4.97;;;1.60;;
7833;SDS011;3962;42.696;23.354;2022-09-17T08:36:42;5.13;;;1.47;;
7833;SDS011;3962;42.696;23.354;2022-09-17T08:39:09;2.83;;;2.07;;
7833;SDS011;3962;42.696;23.354;2022-09-17T08:44:31;5.83;;;1.87;;
7833;SDS011;3962;42.696;23.354;2022-09-17T08:47:07;5.93;;;2.30;;
7833;SDS011;3962;42.696;23.354;2022-09-17T08:49:45;4.17;;;1.40;;
7833;SDS011;3962;42.696;23.354;2022-09-17T08:52:20;2.33;;;1.50;;
7833;SDS011;3962;42.696;23.354;2022-09-17T08:55:13;4.30;;;1.63;;
7833;SDS011;3962;42.696;23.354;2022-09-17T08:57:50;2.63;;;1.80;;
7833;SDS011;3962;42.696;23.354;2022-09-17T09:00:23;5.93;;;1.57;;
7833;SDS011;3962;42.696;23.354;2022-09-17T09:02:56;3.43;;;1.70;;
7833;SDS011;3962;42.696;23.354;2022-09-17T09:05:39;4.60;;;2.37;;
7833;SDS011;3962;42.696;23.354;2022-09-17T09:08:12;2.37;;;1.73;;
7833;SDS011;3962;42.696;23.354;2022-09-17T09:10:44;2.93;;;1.80;;
7833;SDS011;3962;42.696;23.354;2022-09-17T09:13:18;5.90;;;2.23;;
7833;SDS011;3962;42.696;23.354;2022-09-17T09:15:50;4.97;;;1.93;;
7833;SDS011;3962;42.696;23.354;2022-09-17T09:18:22;7.57;;;2.30;;
7833;SDS011;3962;42.696;23.354;2022-09-17T09:20:52;6.67;;;2.60;;
7833;SDS011;3962;42.696;23.354;2022-09-17T09:23:25;7.03;;;2.43;;
7833;SDS011;3962;42.696;23.354;2022-09-17T09:26:00;4.90;;;2.80;;
7833;SDS011;3962;42.696;23.354;2022-09-17T09:28:49;3.03;;;2.23;;
7833;SDS011;3962;42.696;23.354;2022-09-17T09:31:33;7.47;;;2.80;;
7833;SDS011;3962;42.696;23.354;2022-09-17T09:34:21;6.77;;;2.63;;
7833;SDS011;3962;42.696;23.354;2022-09-17T09:36:50;7.77;;;2.70;;
7833;SDS011;3962;42.696;23.354;2022-09-17T09:39:18;4.10;;;2.57;;
7833;SDS011;3962;42.696;23.354;2022-09-17T09:41:50;7.50;;;2.70;;
7833;SDS011;3962;42.696;23.354;2022-09-17T09:44:22;6.33;;;2.67;;
7833;SDS011;3962;42.696;23.354;2022-09-17T09:47:11;4.50;;;3.17;;
7833;SDS011;3962;42.696;23.354;2022-09-17T09:49:52;5.63;;;3.00;;
7833;SDS011;3962;42.696;23.354;2022-09-17T09:52:37;5.63;;;2.50;;
7833;SDS011;3962;42.696;23.354;2022-09-17T09:58:09;10.47;;;4.47;;
7833;SDS011;3962;42.696;23.354;2022-09-17T10:00:44;9.23;;;4.83;;
7833;SDS011;3962;42.696;23.354;2022-09-17T10:03:12;7.40;;;3.80;;
7833;SDS011;3962;42.696;23.354;2022-09-17T10:05:51;7.00;;;3.87;;
7833;SDS011;3962;42.696;23.354;2022-09-17T10:08:18;10.07;;;4.50;;
7833;SDS011;3962;42.696;23.354;2022-09-17T10:10:56;6.33;;;3.80;;
7833;SDS011;3962;42.696;23.354;2022-09-17T10:13:25;10.60;;;3.90;;
7833;SDS011;3962;42.696;23.354;2022-09-17T10:15:55;8.23;;;4.40;;
7833;SDS011;3962;42.696;23.354;2022-09-17T10:18:23;13.20;;;5.43;;
7833;SDS011;3962;42.696;23.354;2022-09-17T10:20:54;7.00;;;3.67;;
7833;SDS011;3962;42.696;23.354;2022-09-17T10:23:24;9.90;;;4.93;;
7833;SDS011;3962;42.696;23.354;2022-09-17T10:25:54;12.43;;;6.20;;
7833;SDS011;3962;42.696;23.354;2022-09-17T10:28:31;6.33;;;3.43;;
7833;SDS011;3962;42.696;23.354;2022-09-17T10:31:03;5.93;;;3.50;;
7833;SDS011;3962;42.696;23.354;2022-09-17T10:33:34;5.23;;;3.07;;
7833;SDS011;3962;42.696;23.354;2022-09-17T10:36:04;6.87;;;3.10;;
7833;SDS011;3962;42.696;23.354;2022-09-17T10:38:33;10.63;;;4.47;;
7833;SDS011;3962;42.696;23.354;2022-09-17T10:41:17;9.50;;;5.23;;
7833;SDS011;3962;42.696;23.354;2022-09-17T10:43:46;8.47;;;2.87;;
7833;SDS011;3962;42.696;23.354;2022-09-17T10:46:16;6.57;;;3.40;;
7833;SDS011;3962;42.696;23.354;2022-09-17T10:48:49;4.77;;;2.83;;
7833;SDS011;3962;42.696;23.354;2022-09-17T10:51:23;4.50;;;2.60;;
7833;SDS011;3962;42.696;23.354;2022-09-17T10:53:58;5.67;;;2.10;;
7833;SDS011;3962;42.696;23.354;2022-09-17T10:56:43;3.30;;;2.20;;
7833;SDS011;3962;42.696;23.354;2022-09-17T11:02:34;4.33;;;2.43;;
7833;SDS011;3962;42.696;23.354;2022-09-17T11:05:34;4.33;;;2.40;;
7833;SDS011;3962;42.696;23.354;2022-09-17T11:08:11;4.77;;;2.60;;
7833;SDS011;3962;42.696;23.354;2022-09-17T11:10:48;5.53;;;2.10;;
7833;SDS011;3962;42.696;23.354;2022-09-17T11:13:25;5.60;;;2.63;;
7833;SDS011;3962;42.696;23.354;2022-09-17T11:18:56;8.13;;;2.90;;
7833;SDS011;3962;42.696;23.354;2022-09-17T11:21:38;6.23;;;3.00;;
7833;SDS011;3962;42.696;23.354;2022-09-17T11:24:25;6.30;;;3.40;;
7833;SDS011;3962;42.696;23.354;2022-09-17T11:27:26;11.87;;;3.80;;
7833;SDS011;3962;42.696;23.354;2022-09-17T11:30:15;6.90;;;3.70;;
7833;SDS011;3962;42.696;23.354;2022-09-17T11:32:48;4.83;;;3.17;;
7833;SDS011;3962;42.696;23.354;2022-09-17T11:35:34;8.70;;;4.23;;
7833;SDS011;3962;42.696;23.354;2022-09-17T11:38:05;5.97;;;3.57;;
7833;SDS011;3962;42.696;23.354;2022-09-17T11:40:39;5.47;;;3.10;;
7833;SDS011;3962;42.696;23.354;2022-09-17T11:43:12;8.83;;;3.67;;
7833;SDS011;3962;42.696;23.354;2022-09-17T11:45:49;6.80;;;3.10;;
7833;SDS011;3962;42.696;23.354;2022-09-17T11:48:23;8.70;;;3.70;;
7833;SDS011;3962;42.696;23.354;2022-09-17T11:50:59;4.47;;;2.60;;
7833;SDS011;3962;42.696;23.354;2022-09-17T11:53:33;5.57;;;2.23;;
7833;SDS011;3962;42.696;23.354;2022-09-17T11:56:08;4.30;;;2.10;;
7833;SDS011;3962;42.696;23.354;2022-09-17T11:58:47;3.77;;;2.20;;
7833;SDS011;3962;42.696;23.354;2022-09-17T12:01:19;6.20;;;2.70;;
7833;SDS011;3962;42.696;23.354;2022-09-17T12:03:52;4.63;;;2.43;;
7833;SDS011;3962;42.696;23.354;2022-09-17T12:06:27;7.43;;;2.57;;
7833;SDS011;3962;42.696;23.354;2022-09-17T12:09:03;6.40;;;2.70;;
7833;SDS011;3962;42.696;23.354;2022-09-17T12:11:38;5.10;;;2.30;;
7833;SDS011;3962;42.696;23.354;2022-09-17T12:14:10;5.83;;;2.47;;
7833;SDS011;3962;42.696;23.354;2022-09-17T12:16:43;8.13;;;3.07;;
7833;SDS011;3962;42.696;23.354;2022-09-17T12:19:15;3.53;;;2.67;;
7833;SDS011;3962;42.696;23.354;2022-09-17T12:21:50;5.87;;;2.80;;
7833;SDS011;3962;42.696;23.354;2022-09-17T12:24:20;5.77;;;2.43;;
7833;SDS011;3962;42.696;23.354;2022-09-17T12:26:52;4.50;;;2.27;;
7833;SDS011;3962;42.696;23.354;2022-09-17T12:29:36;4.23;;;2.60;;
7833;SDS011;3962;42.696;23.354;2022-09-17T12:32:27;4.10;;;2.30;;
7833;SDS011;3962;42.696;23.354;2022-09-17T12:35:14;2.23;;;2.03;;
7833;SDS011;3962;42.696;23.354;2022-09-17T12:38:02;8.70;;;3.40;;
7833;SDS011;3962;42.696;23.354;2022-09-17T12:40:41;5.93;;;2.97;;
7833;SDS011;3962;42.696;23.354;2022-09-17T12:43:22;3.30;;;2.23;;
7833;SDS011;3962;42.696;23.354;2022-09-17T12:46:05;4.27;;;2.40;;
7833;SDS011;3962;42.696;23.354;2022-09-17T12:48:48;4.40;;;2.60;;
7833;SDS011;3962;42.696;23.354;2022-09-17T12:51:28;5.70;;;3.13;;
7833;SDS011;3962;42.696;23.354;2022-09-17T12:54:14;6.40;;;2.70;;
7833;SDS011;3962;42.696;23.354;2022-09-17T12:56:54;6.37;;;3.27;;
7833;SDS011;3962;42.696;23.354;2022-09-17T12:59:28;6.30;;;3.23;;
7833;SDS011;3962;42.696;23.354;2022-09-17T13:01:58;6.20;;;3.27;;
7833;SDS011;3962;42.696;23.354;2022-09-17T13:04:50;5.93;;;3.33;;
7833;SDS011;3962;42.696;23.354;2022-09-17T13:07:45;11.27;;;5.70;;
7833;SDS011;3962;42.696;23.354;2022-09-17T13:10:40;7.10;;;3.60;;
7833;SDS011;3962;42.696;23.354;2022-09-17T13:13:28;7.33;;;3.80;;
7833;SDS011;3962;42.696;23.354;2022-09-17T13:16:05;7.53;;;2.80;;
7833;SDS011;3962;42.696;23.354;2022-09-17T13:18:38;5.40;;;3.50;;
7833;SDS011;3962;42.696;23.354;2022-09-17T13:21:13;5.80;;;2.70;;
7833;SDS011;3962;42.696;23.354;2022-09-17T13:23:45;5.53;;;3.10;;
7833;SDS011;3962;42.696;23.354;2022-09-17T13:26:16;6.43;;;2.67;;
7833;SDS011;3962;42.696;23.354;2022-09-17T13:28:45;5.00;;;2.90;;
7833;SDS011;3962;42.696;23.354;2022-09-17T13:31:18;5.17;;;3.93;;
7833;SDS011;3962;42.696;23.354;2022-09-17T13:33:53;7.47;;;3.10;;
7833;SDS011;3962;42.696;23.354;2022-09-17T13:36:38;6.97;;;3.07;;
7833;SDS011;3962;42.696;23.354;2022-09-17T13:39:08;5.07;;;3.20;;
7833;SDS011;3962;42.696;23.354;2022-09-17T13:41:38;6.47;;;3.23;;
7833;SDS011;3962;42.696;23.354;2022-09-17T13:44:07;5.90;;;3.40;;
7833;SDS011;3962;42.696;23.354;2022-09-17T13:46:36;6.60;;;2.93;;
7833;SDS011;3962;42.696;23.354;2022-09-17T13:49:05;7.23;;;3.43;;
7833;SDS011;3962;42.696;23.354;2022-09-17T13:51:52;11.87;;;4.27;;
7833;SDS011;3962;42.696;23.354;2022-09-17T13:54:20;8.87;;;4.00;;
7833;SDS011;3962;42.696;23.354;2022-09-17T13:57:01;4.33;;;3.50;;
7833;SDS011;3962;42.696;23.354;2022-09-17T13:59:33;5.30;;;2.80;;
7833;SDS011;3962;42.696;23.354;2022-09-17T14:04:54;6.33;;;4.00;;
7833;SDS011;3962;42.696;23.354;2022-09-17T14:07:34;7.73;;;3.20;;
7833;SDS011;3962;42.696;23.354;2022-09-17T14:16:20;7.03;;;3.57;;
7833;SDS011;3962;42.696;23.354;2022-09-17T14:18:54;6.63;;;3.40;;
7833;SDS011;3962;42.696;23.354;2022-09-17T14:21:28;5.47;;;2.90;;
7833;SDS011;3962;42.696;23.354;2022-09-17T14:23:57;7.60;;;3.50;;
7833;SDS011;3962;42.696;23.354;2022-09-17T14:29:33;9.57;;;4.17;;
7833;SDS011;3962;42.696;23.354;2022-09-17T14:32:13;9.00;;;4.27;;
7833;SDS011;3962;42.696;23.354;2022-09-17T14:34:45;5.30;;;3.13;;
7833;SDS011;3962;42.696;23.354;2022-09-17T14:37:13;4.27;;;2.50;;
7833;SDS011;3962;42.696;23.354;2022-09-17T14:39:43;4.63;;;2.93;;
7833;SDS011;3962;42.696;23.354;2022-09-17T14:42:12;4.93;;;2.90;;
7833;SDS011;3962;42.696;23.354;2022-09-17T14:44:48;7.20;;;3.37;;
7833;SDS011;3962;42.696;23.354;2022-09-17T14:47:19;3.83;;;3.00;;
7833;SDS011;3962;42.696;23.354;2022-09-17T14:49:47;4.43;;;2.30;;
7833;SDS011;3962;42.696;23.354;2022-09-17T14:52:25;4.67;;;2.57;;
7833;SDS011;3962;42.696;23.354;2022-09-17T14:57:36;4.47;;;2.43;;
7833;SDS011;3962;42.696;23.354;2022-09-17T15:00:13;3.63;;;1.80;;
7833;SDS011;3962;42.696;23.354;2022-09-17T15:02:43;4.43;;;2.03;;
7833;SDS011;3962;42.696;23.354;2022-09-17T15:05:17;4.77;;;2.10;;
7833;SDS011;3962;42.696;23.354;2022-09-17T15:07:46;3.37;;;2.03;;
7833;SDS011;3962;42.696;23.354;2022-09-17T15:10:14;6.17;;;2.10;;
7833;SDS011;3962;42.696;23.354;2022-09-17T15:12:43;2.77;;;2.07;;
7833;SDS011;3962;42.696;23.354;2022-09-17T15:15:17;2.60;;;2.00;;
7833;SDS011;3962;42.696;23.354;2022-09-17T15:17:46;3.70;;;2.50;;
7833;SDS011;3962;42.696;23.354;2022-09-17T15:20:15;3.87;;;2.43;;
7833;SDS011;3962;42.696;23.354;2022-09-17T15:22:46;4.70;;;2.20;;
7833;SDS011;3962;42.696;23.354;2022-09-17T15:25:17;3.03;;;2.20;;
7833;SDS011;3962;42.696;23.354;2022-09-17T15:27:48;7.83;;;2.63;;
7833;SDS011;3962;42.696;23.354;2022-09-17T15:30:18;4.60;;;2.20;;
7833;SDS011;3962;42.696;23.354;2022-09-17T15:32:47;3.30;;;1.60;;
7833;SDS011;3962;42.696;23.354;2022-09-17T15:35:19;3.60;;;1.70;;
7833;SDS011;3962;42.696;23.354;2022-09-17T15:37:53;3.23;;;1.90;;
7833;SDS011;3962;42.696;23.354;2022-09-17T15:40:25;4.93;;;2.57;;
7833;SDS011;3962;42.696;23.354;2022-09-17T15:42:57;8.47;;;3.23;;
7833;SDS011;3962;42.696;23.354;2022-09-17T15:45:30;7.30;;;3.13;;
7833;SDS011;3962;42.696;23.354;2022-09-17T15:48:01;5.47;;;2.93;;
7833;SDS011;3962;42.696;23.354;2022-09-17T15:50:29;9.70;;;3.27;;
7833;SDS011;3962;42.696;23.354;2022-09-17T15:55:45;7.50;;;3.37;;
7833;SDS011;3962;42.696;23.354;2022-09-17T15:58:25;12.07;;;7.30;;
7833;SDS011;3962;42.696;23.354;2022-09-17T16:04:17;10.33;;;2.40;;
7833;SDS011;3962;42.696;23.354;2022-09-17T16:06:58;6.80;;;3.20;;
7833;SDS011;3962;42.696;23.354;2022-09-17T16:12:20;4.30;;;2.63;;
7833;SDS011;3962;42.696;23.354;2022-09-17T16:14:48;7.43;;;3.03;;
7833;SDS011;3962;42.696;23.354;2022-09-17T16:20:14;3.93;;;2.40;;
7833;SDS011;3962;42.696;23.354;2022-09-17T16:22:42;5.57;;;2.53;;
7833;SDS011;3962;42.696;23.354;2022-09-17T16:25:11;6.30;;;2.63;;
7833;SDS011;3962;42.696;23.354;2022-09-17T16:27:43;4.37;;;2.90;;
7833;SDS011;3962;42.696;23.354;2022-09-17T16:30:14;7.70;;;3.13;;
7833;SDS011;3962;42.696;23.354;2022-09-17T16:32:44;5.50;;;2.67;;
7833;SDS011;3962;42.696;23.354;2022-09-17T16:35:12;2.70;;;1.83;;
7833;SDS011;3962;42.696;23.354;2022-09-17T16:37:39;5.00;;;2.13;;
7833;SDS011;3962;42.696;23.354;2022-09-17T16:40:08;3.00;;;2.13;;
7833;SDS011;3962;42.696;23.354;2022-09-17T16:42:37;4.60;;;2.17;;
7833;SDS011;3962;42.696;23.354;2022-09-17T16:45:04;5.63;;;2.70;;
7833;SDS011;3962;42.696;23.354;2022-09-17T16:47:33;6.90;;;3.30;;
7833;SDS011;3962;42.696;23.354;2022-09-17T16:50:05;5.63;;;2.33;;
7833;SDS011;3962;42.696;23.354;2022-09-17T16:52:34;5.17;;;3.17;;
7833;SDS011;3962;42.696;23.354;2022-09-17T16:55:02;3.50;;;2.40;;